sensor_id;sensor_type;location;lat;lon;timestamp;pressure;altitude;pressure_sealevel;temperature;humidity
58757;BME280;44527;47.460;19.016;2022-08-23T00:02:40;99767.72;;;19.72;97.97
58757;BME280;44527;47.460;19.016;2022-08-23T00:05:44;99755.94;;;19.66;98.44
58757;BME280;44527;47.460;19.016;2022-08-23T00:08:48;99755.03;;;19.74;97.90
58757;BME280;44527;47.460;19.016;2022-08-23T00:12:07;99760.88;;;19.78;97.36
58757;BME280;44527;47.460;19.016;2022-08-23T00:15:13;99754.53;;;19.79;97.52
58757;BME280;44527;47.460;19.016;2022-08-23T00:18:17;99764.34;;;19.78;97.44
58757;BME280;44527;47.460;19.016;2022-08-23T00:21:21;99753.25;;;19.66;98.67
58757;BME280;44527;47.460;19.016;2022-08-23T00:24:25;99761.91;;;19.68;98.58
58757;BME280;44527;47.460;19.016;2022-08-23T00:27:27;99765.22;;;19.70;98.08
58757;BME280;44527;47.460;19.016;2022-08-23T00:30:30;99760.38;;;19.74;98.16
58757;BME280;44527;47.460;19.016;2022-08-23T00:33:34;99753.88;;;19.77;97.64
58757;BME280;44527;47.460;19.016;2022-08-23T00:36:38;99757.66;;;19.82;97.62
58757;BME280;44527;47.460;19.016;2022-08-23T00:39:40;99755.47;;;19.86;97.85
58757;BME280;44527;47.460;19.016;2022-08-23T00:42:50;99759.16;;;19.85;96.95
58757;BME280;44527;47.460;19.016;2022-08-23T00:50:21;99767.13;;;19.85;96.87
58757;BME280;44527;47.460;19.016;2022-08-23T00:53:35;99768.31;;;19.82;97.45
58757;BME280;44527;47.460;19.016;2022-08-23T00:56:39;99774.13;;;19.86;98.10
58757;BME280;44527;47.460;19.016;2022-08-23T00:59:42;99780.13;;;19.80;96.95
58757;BME280;44527;47.460;19.016;2022-08-23T01:02:45;99782.16;;;19.78;97.63
58757;BME280;44527;47.460;19.016;2022-08-23T01:06:37;99780.19;;;19.71;98.09
58757;BME280;44527;47.460;19.016;2022-08-23T01:09:15;99783.84;;;19.70;98.43
58757;BME280;44527;47.460;19.016;2022-08-23T01:12:23;99789.38;;;19.69;99.22
58757;BME280;44527;47.460;19.016;2022-08-23T01:15:54;99785.03;;;19.60;99.69
58757;BME280;44527;47.460;19.016;2022-08-23T01:19:00;99787.87;;;19.58;100.00
58757;BME280;44527;47.460;19.016;2022-08-23T01:25:22;99784.06;;;19.52;100.00
58757;BME280;44527;47.460;19.016;2022-08-23T01:28:26;99794.41;;;19.47;100.00
58757;BME280;44527;47.460;19.016;2022-08-23T01:31:28;99790.84;;;19.63;99.95
58757;BME280;44527;47.460;19.016;2022-08-23T01:34:31;99793.31;;;19.73;98.14
58757;BME280;44527;47.460;19.016;2022-08-23T01:37:37;99806.66;;;19.65;98.03
58757;BME280;44527;47.460;19.016;2022-08-23T01:40:42;99809.81;;;19.60;98.49
58757;BME280;44527;47.460;19.016;2022-08-23T01:43:46;99806.69;;;19.57;98.45
58757;BME280;44527;47.460;19.016;2022-08-23T01:46:50;99806.69;;;19.57;98.13
58757;BME280;44527;47.460;19.016;2022-08-23T01:49:59;99809.81;;;19.60;98.40
58757;BME280;44527;47.460;19.016;2022-08-23T01:53:03;99811.53;;;19.53;99.36
58757;BME280;44527;47.460;19.016;2022-08-23T01:56:06;99811.53;;;19.45;100.00
58757;BME280;44527;47.460;19.016;2022-08-23T01:59:10;99813.25;;;19.29;100.00
58757;BME280;44527;47.460;19.016;2022-08-23T02:02:14;99815.06;;;19.37;100.00
58757;BME280;44527;47.460;19.016;2022-08-23T02:05:17;99816.03;;;19.44;100.00
58757;BME280;44527;47.460;19.016;2022-08-23T02:08:20;99807.25;;;19.36;100.00
58757;BME280;44527;47.460;19.016;2022-08-23T02:11:42;99807.06;;;19.37;100.00
58757;BME280;44527;47.460;19.016;2022-08-23T02:14:44;99817.56;;;19.31;100.00
58757;BME280;44527;47.460;19.016;2022-08-23T02:17:50;99821.91;;;19.32;100.00
58757;BME280;44527;47.460;19.016;2022-08-23T02:20:54;99819.41;;;19.22;100.00
58757;BME280;44527;47.460;19.016;2022-08-23T02:24:20;99820.75;;;19.26;100.00
58757;BME280;44527;47.460;19.016;2022-08-23T02:27:20;99824.72;;;19.38;100.00
58757;BME280;44527;47.460;19.016;2022-08-23T02:30:24;99829.22;;;19.38;100.00
58757;BME280;44527;47.460;19.016;2022-08-23T02:33:29;99832.38;;;19.33;100.00
58757;BME280;44527;47.460;19.016;2022-08-23T02:36:32;99825.87;;;19.36;100.00
58757;BME280;44527;47.460;19.016;2022-08-23T02:39:36;99830.88;;;19.31;100.00
58757;BME280;44527;47.460;19.016;2022-08-23T02:42:40;99832.22;;;19.35;100.00
58757;BME280;44527;47.460;19.016;2022-08-23T02:45:43;99827.72;;;19.35;100.00
58757;BME280;44527;47.460;19.016;2022-08-23T02:48:48;99835.34;;;19.38;100.00
58757;BME280;44527;47.460;19.016;2022-08-23T02:51:52;99834.34;;;19.31;100.00
58757;BME280;44527;47.460;19.016;2022-08-23T02:54:54;99844.50;;;19.27;100.00
58757;BME280;44527;47.460;19.016;2022-08-23T02:57:59;99847.50;;;19.33;100.00
58757;BME280;44527;47.460;19.016;2022-08-23T03:01:02;99852.00;;;19.32;100.00
58757;BME280;44527;47.460;19.016;2022-08-23T03:04:07;99847.03;;;19.29;100.00
58757;BME280;44527;47.460;19.016;2022-08-23T03:07:11;99849.00;;;19.27;100.00
58757;BME280;44527;47.460;19.016;2022-08-23T03:10:16;99859.31;;;19.22;100.00
58757;BME280;44527;47.460;19.016;2022-08-23T03:13:19;99851.19;;;19.32;100.00
58757;BME280;44527;47.460;19.016;2022-08-23T03:16:23;99854.66;;;19.32;100.00
58757;BME280;44527;47.460;19.016;2022-08-23T03:19:25;99867.28;;;19.38;100.00
58757;BME280;44527;47.460;19.016;2022-08-23T03:22:28;99866.94;;;19.41;100.00
58757;BME280;44527;47.460;19.016;2022-08-23T03:25:30;99871.09;;;19.44;100.00
58757;BME280;44527;47.460;19.016;2022-08-23T03:28:34;99872.56;;;19.46;100.00
58757;BME280;44527;47.460;19.016;2022-08-23T03:31:37;99870.78;;;19.47;100.00
58757;BME280;44527;47.460;19.016;2022-08-23T03:34:40;99868.94;;;19.47;100.00
58757;BME280;44527;47.460;19.016;2022-08-23T03:37:42;99872.63;;;19.38;100.00
58757;BME280;44527;47.460;19.016;2022-08-23T03:40:45;99871.59;;;19.39;100.00
58757;BME280;44527;47.460;19.016;2022-08-23T03:43:48;99877.91;;;19.46;100.00
58757;BME280;44527;47.460;19.016;2022-08-23T03:46:50;99876.78;;;19.41;100.00
58757;BME280;44527;47.460;19.016;2022-08-23T03:49:52;99881.28;;;19.32;100.00
58757;BME280;44527;47.460;19.016;2022-08-23T03:52:55;99873.09;;;19.34;100.00
58757;BME280;44527;47.460;19.016;2022-08-23T03:55:57;99891.59;;;19.19;100.00
58757;BME280;44527;47.460;19.016;2022-08-23T03:59:04;99884.13;;;19.22;100.00
58757;BME280;44527;47.460;19.016;2022-08-23T04:02:07;99889.25;;;19.32;100.00
58757;BME280;44527;47.460;19.016;2022-08-23T04:05:10;99890.22;;;19.39;100.00
58757;BME280;44527;47.460;19.016;2022-08-23T04:08:13;99894.87;;;19.37;100.00
58757;BME280;44527;47.460;19.016;2022-08-23T04:11:20;99909.87;;;19.38;100.00
58757;BME280;44527;47.460;19.016;2022-08-23T04:14:23;99915.19;;;19.38;100.00
58757;BME280;44527;47.460;19.016;2022-08-23T04:17:26;99909.84;;;19.46;100.00
58757;BME280;44527;47.460;19.016;2022-08-23T04:20:28;99907.16;;;19.55;100.00
58757;BME280;44527;47.460;19.016;2022-08-23T04:23:31;99909.87;;;19.38;100.00
58757;BME280;44527;47.460;19.016;2022-08-23T04:26:34;99911.53;;;19.39;100.00
58757;BME280;44527;47.460;19.016;2022-08-23T04:29:36;99909.19;;;19.36;100.00
58757;BME280;44527;47.460;19.016;2022-08-23T04:32:41;99904.22;;;19.33;100.00
58757;BME280;44527;47.460;19.016;2022-08-23T04:35:45;99899.22;;;19.38;100.00
58757;BME280;44527;47.460;19.016;2022-08-23T04:38:47;99901.37;;;19.43;100.00
58757;BME280;44527;47.460;19.016;2022-08-23T04:41:50;99907.03;;;19.48;100.00
58757;BME280;44527;47.460;19.016;2022-08-23T04:45:16;99909.50;;;19.49;100.00
58757;BME280;44527;47.460;19.016;2022-08-23T04:48:18;99918.16;;;19.51;100.00
58757;BME280;44527;47.460;19.016;2022-08-23T04:51:21;99922.31;;;19.54;100.00
58757;BME280;44527;47.460;19.016;2022-08-23T04:54:23;99911.47;;;19.56;100.00
58757;BME280;44527;47.460;19.016;2022-08-23T04:57:26;99916.66;;;19.57;100.00
58757;BME280;44527;47.460;19.016;2022-08-23T05:00:28;99923.97;;;19.71;100.00
58757;BME280;44527;47.460;19.016;2022-08-23T05:03:30;99932.94;;;19.62;100.00
58757;BME280;44527;47.460;19.016;2022-08-23T05:06:33;99937.12;;;19.57;100.00
58757;BME280;44527;47.460;19.016;2022-08-23T05:09:36;99943.09;;;19.59;100.00
58757;BME280;44527;47.460;19.016;2022-08-23T05:12:39;99942.94;;;19.60;100.00
58757;BME280;44527;47.460;19.016;2022-08-23T05:15:42;99938.09;;;19.64;100.00
58757;BME280;44527;47.460;19.016;2022-08-23T05:18:45;99938.97;;;19.48;100.00
58757;BME280;44527;47.460;19.016;2022-08-23T05:21:47;99949.09;;;19.52;100.00
58757;BME280;44527;47.460;19.016;2022-08-23T05:24:56;99945.41;;;19.62;100.00
58757;BME280;44527;47.460;19.016;2022-08-23T05:27:58;99949.06;;;19.77;100.00
58757;BME280;44527;47.460;19.016;2022-08-23T05:31:08;99948.91;;;19.79;100.00
58757;BME280;44527;47.460;19.016;2022-08-23T05:34:13;99948.56;;;19.82;100.00
58757;BME280;44527;47.460;19.016;2022-08-23T05:37:18;99954.38;;;19.77;100.00
58757;BME280;44527;47.460;19.016;2022-08-23T05:40:20;99956.34;;;20.00;100.00
58757;BME280;44527;47.460;19.016;2022-08-23T05:43:25;99964.44;;;20.14;100.00
58757;BME280;44527;47.460;19.016;2022-08-23T05:46:27;99962.53;;;20.31;97.95
58757;BME280;44527;47.460;19.016;2022-08-23T05:49:33;99977.81;;;20.46;96.51
58757;BME280;44527;47.460;19.016;2022-08-23T05:52:37;99974.81;;;20.40;98.00
58757;BME280;44527;47.460;19.016;2022-08-23T05:55:40;99985.81;;;20.46;96.49
58757;BME280;44527;47.460;19.016;2022-08-23T05:58:44;99984.66;;;20.40;96.56
58757;BME280;44527;47.460;19.016;2022-08-23T06:01:47;99996.94;;;20.57;95.39
58757;BME280;44527;47.460;19.016;2022-08-23T06:04:51;99990.28;;;20.53;95.91
58757;BME280;44527;47.460;19.016;2022-08-23T06:07:58;99989.09;;;20.56;96.27
58757;BME280;44527;47.460;19.016;2022-08-23T06:11:04;99995.94;;;20.50;96.12
58757;BME280;44527;47.460;19.016;2022-08-23T06:14:07;100008.09;;;20.44;96.95
58757;BME280;44527;47.460;19.016;2022-08-23T06:17:10;100004.94;;;20.49;95.89
58757;BME280;44527;47.460;19.016;2022-08-23T06:20:12;100011.09;;;20.50;96.22
58757;BME280;44527;47.460;19.016;2022-08-23T06:23:20;100002.69;;;20.69;96.23
58757;BME280;44527;47.460;19.016;2022-08-23T06:26:25;100009.56;;;20.63;94.95
58757;BME280;44527;47.460;19.016;2022-08-23T06:29:28;100021.22;;;20.62;95.00
58757;BME280;44527;47.460;19.016;2022-08-23T06:32:35;100020.75;;;20.59;94.51
58757;BME280;44527;47.460;19.016;2022-08-23T06:35:38;100019.38;;;20.63;94.99
58757;BME280;44527;47.460;19.016;2022-08-23T06:38:42;100019.22;;;20.64;94.61
58757;BME280;44527;47.460;19.016;2022-08-23T06:41:48;100021.44;;;20.84;93.14
58757;BME280;44527;47.460;19.016;2022-08-23T06:44:54;100025.59;;;20.86;93.11
58757;BME280;44527;47.460;19.016;2022-08-23T06:47:58;100028.41;;;21.16;91.70
58757;BME280;44527;47.460;19.016;2022-08-23T06:51:01;100037.31;;;21.31;89.16
58757;BME280;44527;47.460;19.016;2022-08-23T06:54:11;100031.78;;;21.33;89.30
58757;BME280;44527;47.460;19.016;2022-08-23T06:57:15;100037.13;;;21.33;87.95
58757;BME280;44527;47.460;19.016;2022-08-23T07:00:18;100033.22;;;21.21;88.83
58757;BME280;44527;47.460;19.016;2022-08-23T07:03:24;100038.19;;;21.24;87.13
58757;BME280;44527;47.460;19.016;2022-08-23T07:06:28;100038.62;;;21.12;88.78
58757;BME280;44527;47.460;19.016;2022-08-23T07:09:31;100039.53;;;21.28;87.26
58757;BME280;44527;47.460;19.016;2022-08-23T07:12:39;100045.31;;;21.40;86.83
58757;BME280;44527;47.460;19.016;2022-08-23T07:15:47;100041.53;;;21.87;85.26
58757;BME280;44527;47.460;19.016;2022-08-23T07:18:51;100054.41;;;22.21;82.96
58757;BME280;44527;47.460;19.016;2022-08-23T07:21:57;100047.72;;;22.76;79.91
58757;BME280;44527;47.460;19.016;2022-08-23T07:25:01;100049.25;;;23.86;74.51
58757;BME280;44527;47.460;19.016;2022-08-23T07:28:05;100055.78;;;25.89;65.74
58757;BME280;44527;47.460;19.016;2022-08-23T07:31:26;100049.69;;;27.37;60.98
58757;BME280;44527;47.460;19.016;2022-08-23T07:34:29;100047.50;;;27.52;58.67
58757;BME280;44527;47.460;19.016;2022-08-23T07:37:33;100047.84;;;26.92;58.55
58757;BME280;44527;47.460;19.016;2022-08-23T07:40:36;100054.28;;;26.26;60.82
58757;BME280;44527;47.460;19.016;2022-08-23T07:43:40;100057.84;;;26.00;61.73
58757;BME280;44527;47.460;19.016;2022-08-23T07:46:44;100054.72;;;25.77;62.62
58757;BME280;44527;47.460;19.016;2022-08-23T07:49:49;100059.47;;;25.68;62.82
58757;BME280;44527;47.460;19.016;2022-08-23T07:52:52;100063.63;;;25.71;62.43
58757;BME280;44527;47.460;19.016;2022-08-23T07:55:55;100070.22;;;26.08;61.42
58757;BME280;44527;47.460;19.016;2022-08-23T07:59:01;100075.13;;;26.44;60.34
58757;BME280;44527;47.460;19.016;2022-08-23T08:02:04;100064.16;;;26.46;59.27
58757;BME280;44527;47.460;19.016;2022-08-23T08:05:08;100065.91;;;26.85;59.08
58757;BME280;44527;47.460;19.016;2022-08-23T08:08:11;100063.87;;;26.74;57.96
58757;BME280;44527;47.460;19.016;2022-08-23T08:11:16;100058.34;;;26.55;58.74
58757;BME280;44527;47.460;19.016;2022-08-23T08:14:21;100058.41;;;26.94;57.10
58757;BME280;44527;47.460;19.016;2022-08-23T08:17:24;100057.56;;;26.93;57.36
58757;BME280;44527;47.460;19.016;2022-08-23T08:20:32;100063.87;;;26.74;57.85
58757;BME280;44527;47.460;19.016;2022-08-23T08:23:37;100064.03;;;26.01;60.25
58757;BME280;44527;47.460;19.016;2022-08-23T08:26:41;100066.94;;;25.79;60.41
58757;BME280;44527;47.460;19.016;2022-08-23T08:29:45;100066.31;;;26.17;60.59
58757;BME280;44527;47.460;19.016;2022-08-23T08:32:47;100067.75;;;26.13;59.35
58757;BME280;44527;47.460;19.016;2022-08-23T08:35:51;100076.22;;;26.10;59.78
58757;BME280;44527;47.460;19.016;2022-08-23T08:39:04;100083.28;;;25.91;61.22
58757;BME280;44527;47.460;19.016;2022-08-23T08:45:19;100092.56;;;25.62;62.01
58757;BME280;44527;47.460;19.016;2022-08-23T08:48:37;100093.44;;;26.02;61.54
58757;BME280;44527;47.460;19.016;2022-08-23T08:51:54;100100.00;;;26.33;58.76
58757;BME280;44527;47.460;19.016;2022-08-23T08:55:08;100095.78;;;26.70;57.77
58757;BME280;44527;47.460;19.016;2022-08-23T08:58:18;100097.06;;;26.61;57.15
58757;BME280;44527;47.460;19.016;2022-08-23T09:01:24;100098.34;;;26.32;58.68
58757;BME280;44527;47.460;19.016;2022-08-23T09:04:29;100093.00;;;26.05;59.56
58757;BME280;44527;47.460;19.016;2022-08-23T09:17:41;100099.78;;;26.34;58.04
58757;BME280;44527;47.460;19.016;2022-08-23T09:20:46;100094.00;;;26.51;58.22
58757;BME280;44527;47.460;19.016;2022-08-23T09:23:52;100101.03;;;26.32;57.54
58757;BME280;44527;47.460;19.016;2022-08-23T09:27:03;100094.34;;;26.68;57.09
58757;BME280;44527;47.460;19.016;2022-08-23T09:30:08;100090.47;;;27.02;54.46
58757;BME280;44527;47.460;19.016;2022-08-23T09:33:22;100087.09;;;27.13;53.43
58757;BME280;44527;47.460;19.016;2022-08-23T09:36:31;100091.41;;;27.27;54.93
58757;BME280;44527;47.460;19.016;2022-08-23T09:39:42;100104.59;;;27.36;53.10
58757;BME280;44527;47.460;19.016;2022-08-23T09:42:45;100103.44;;;26.73;53.17
58757;BME280;44527;47.460;19.016;2022-08-23T09:46:08;100098.47;;;27.22;53.05
58757;BME280;44527;47.460;19.016;2022-08-23T09:49:29;100097.56;;;27.91;52.37
58757;BME280;44527;47.460;19.016;2022-08-23T09:52:36;100097.13;;;28.20;48.87
58757;BME280;44527;47.460;19.016;2022-08-23T09:55:48;100092.47;;;27.83;50.40
58757;BME280;44527;47.460;19.016;2022-08-23T09:58:53;100093.47;;;27.89;49.66
58757;BME280;44527;47.460;19.016;2022-08-23T10:01:59;100099.38;;;27.98;49.05
58757;BME280;44527;47.460;19.016;2022-08-23T10:05:18;100101.00;;;27.80;51.13
58757;BME280;44527;47.460;19.016;2022-08-23T10:08:30;100095.63;;;27.73;51.83
58757;BME280;44527;47.460;19.016;2022-08-23T10:11:40;100095.84;;;27.97;50.10
58757;BME280;44527;47.460;19.016;2022-08-23T10:14:47;100092.31;;;28.40;51.00
58757;BME280;44527;47.460;19.016;2022-08-23T10:18:04;100093.16;;;28.77;48.69
58757;BME280;44527;47.460;19.016;2022-08-23T10:24:15;100091.47;;;29.13;46.74
58757;BME280;44527;47.460;19.016;2022-08-23T10:27:37;100090.47;;;28.59;48.31
58757;BME280;44527;47.460;19.016;2022-08-23T10:31:31;100083.94;;;28.85;48.30
58757;BME280;44527;47.460;19.016;2022-08-23T10:45:35;100096.72;;;28.34;46.79
58757;BME280;44527;47.460;19.016;2022-08-23T10:48:56;100092.75;;;28.18;46.54
58757;BME280;44527;47.460;19.016;2022-08-23T10:52:02;100098.06;;;27.82;49.44
58757;BME280;44527;47.460;19.016;2022-08-23T10:55:14;100092.50;;;27.77;47.60
58757;BME280;44527;47.460;19.016;2022-08-23T10:58:26;100094.75;;;28.05;47.65
58757;BME280;44527;47.460;19.016;2022-08-23T11:01:44;100092.31;;;27.71;48.59
58757;BME280;44527;47.460;19.016;2022-08-23T11:05:06;100079.91;;;27.64;48.94
58757;BME280;44527;47.460;19.016;2022-08-23T11:08:32;100082.50;;;27.84;49.80
58757;BME280;44527;47.460;19.016;2022-08-23T11:15:21;100079.22;;;27.50;49.20
58757;BME280;44527;47.460;19.016;2022-08-23T11:21:42;100083.34;;;27.21;50.55
58757;BME280;44527;47.460;19.016;2022-08-23T11:24:57;100080.81;;;27.58;48.92
58757;BME280;44527;47.460;19.016;2022-08-23T11:28:30;100084.16;;;27.53;48.16
58757;BME280;44527;47.460;19.016;2022-08-23T11:31:43;100079.53;;;27.60;47.81
58757;BME280;44527;47.460;19.016;2022-08-23T11:38:00;100076.12;;;27.15;47.64
58757;BME280;44527;47.460;19.016;2022-08-23T11:44:26;100078.16;;;26.74;50.36
58757;BME280;44527;47.460;19.016;2022-08-23T11:47:40;100073.22;;;26.65;53.86
58757;BME280;44527;47.460;19.016;2022-08-23T12:01:11;100081.44;;;26.83;53.29
58757;BME280;44527;47.460;19.016;2022-08-23T12:04:50;100073.78;;;27.25;52.42
58757;BME280;44527;47.460;19.016;2022-08-23T12:11:08;100071.69;;;27.59;51.44
58757;BME280;44527;47.460;19.016;2022-08-23T12:20:42;100078.78;;;27.21;52.55
58757;BME280;44527;47.460;19.016;2022-08-23T12:23:53;100085.31;;;27.00;53.10
58757;BME280;44527;47.460;19.016;2022-08-23T12:27:39;100081.47;;;26.76;54.44
58757;BME280;44527;47.460;19.016;2022-08-23T12:31:02;100083.78;;;26.59;54.05
58757;BME280;44527;47.460;19.016;2022-08-23T12:34:29;100091.69;;;26.41;55.48
58757;BME280;44527;47.460;19.016;2022-08-23T12:40:56;100084.34;;;25.97;54.86
58757;BME280;44527;47.460;19.016;2022-08-23T12:44:06;100082.41;;;26.37;54.34
58757;BME280;44527;47.460;19.016;2022-08-23T12:47:19;100087.06;;;26.75;52.97
58757;BME280;44527;47.460;19.016;2022-08-23T12:50:26;100083.50;;;26.81;51.36
58757;BME280;44527;47.460;19.016;2022-08-23T12:53:37;100086.34;;;26.93;51.89
58757;BME280;44527;47.460;19.016;2022-08-23T12:56:51;100091.59;;;26.81;52.55
58757;BME280;44527;47.460;19.016;2022-08-23T13:03:38;100081.69;;;27.20;52.46
58757;BME280;44527;47.460;19.016;2022-08-23T13:06:48;100085.13;;;27.34;53.30
58757;BME280;44527;47.460;19.016;2022-08-23T13:09:52;100086.00;;;27.27;52.58
58757;BME280;44527;47.460;19.016;2022-08-23T13:12:56;100090.00;;;27.50;52.44
58757;BME280;44527;47.460;19.016;2022-08-23T13:16:01;100081.09;;;27.75;53.66
58757;BME280;44527;47.460;19.016;2022-08-23T13:19:22;100078.06;;;27.64;55.40
58757;BME280;44527;47.460;19.016;2022-08-23T13:22:25;100083.56;;;27.83;56.12
58757;BME280;44527;47.460;19.016;2022-08-23T13:25:34;100086.16;;;28.14;54.98
58757;BME280;44527;47.460;19.016;2022-08-23T13:28:37;100082.13;;;28.24;55.22
58757;BME280;44527;47.460;19.016;2022-08-23T13:31:54;100085.69;;;27.99;55.25
58757;BME280;44527;47.460;19.016;2022-08-23T13:35:32;100084.28;;;27.65;56.43
58757;BME280;44527;47.460;19.016;2022-08-23T13:38:35;100074.03;;;27.48;57.27
58757;BME280;44527;47.460;19.016;2022-08-23T13:41:42;100084.22;;;27.46;57.86
58757;BME280;44527;47.460;19.016;2022-08-23T13:44:44;100075.03;;;27.22;58.17
58757;BME280;44527;47.460;19.016;2022-08-23T13:47:49;100066.91;;;27.29;58.32
58757;BME280;44527;47.460;19.016;2022-08-23T13:54:18;100064.28;;;27.22;55.61
58757;BME280;44527;47.460;19.016;2022-08-23T13:57:21;100067.69;;;26.98;55.94
58757;BME280;44527;47.460;19.016;2022-08-23T14:00:24;100061.66;;;27.02;57.25
58757;BME280;44527;47.460;19.016;2022-08-23T14:03:28;100070.00;;;27.33;56.75
58757;BME280;44527;47.460;19.016;2022-08-23T14:06:32;100068.44;;;27.50;55.51
58757;BME280;44527;47.460;19.016;2022-08-23T14:09:35;100074.84;;;27.81;52.93
58757;BME280;44527;47.460;19.016;2022-08-23T14:12:41;100062.62;;;27.78;53.43
58757;BME280;44527;47.460;19.016;2022-08-23T14:15:45;100060.06;;;28.08;52.60
58757;BME280;44527;47.460;19.016;2022-08-23T14:19:09;100061.44;;;28.17;52.92
58757;BME280;44527;47.460;19.016;2022-08-23T14:22:33;100060.00;;;28.15;54.40
58757;BME280;44527;47.460;19.016;2022-08-23T14:25:35;100060.78;;;27.97;53.92
58757;BME280;44527;47.460;19.016;2022-08-23T14:28:38;100063.13;;;27.93;53.88
58757;BME280;44527;47.460;19.016;2022-08-23T14:31:45;100065.34;;;27.71;53.39
58757;BME280;44527;47.460;19.016;2022-08-23T14:34:48;100064.09;;;27.49;55.29
58757;BME280;44527;47.460;19.016;2022-08-23T14:37:50;100060.87;;;27.34;56.62
58757;BME280;44527;47.460;19.016;2022-08-23T14:41:11;100062.66;;;27.08;57.02
58757;BME280;44527;47.460;19.016;2022-08-23T14:44:15;100052.88;;;26.82;57.90
58757;BME280;44527;47.460;19.016;2022-08-23T14:47:17;100055.91;;;26.54;57.94
58757;BME280;44527;47.460;19.016;2022-08-23T14:50:20;100058.41;;;26.35;60.32
58757;BME280;44527;47.460;19.016;2022-08-23T14:53:25;100055.47;;;26.44;62.39
58757;BME280;44527;47.460;19.016;2022-08-23T14:56:28;100061.72;;;26.31;61.52
58757;BME280;44527;47.460;19.016;2022-08-23T14:59:31;100050.75;;;26.32;61.21
58757;BME280;44527;47.460;19.016;2022-08-23T15:02:33;100050.34;;;26.22;62.88
58757;BME280;44527;47.460;19.016;2022-08-23T15:05:37;100055.78;;;26.09;62.26
58757;BME280;44527;47.460;19.016;2022-08-23T15:08:40;100051.22;;;26.09;60.87
58757;BME280;44527;47.460;19.016;2022-08-23T15:11:43;100050.78;;;26.12;61.03
58757;BME280;44527;47.460;19.016;2022-08-23T15:15:10;100054.09;;;26.21;61.88
58757;BME280;44527;47.460;19.016;2022-08-23T15:18:14;100058.63;;;26.14;60.95
58757;BME280;44527;47.460;19.016;2022-08-23T15:21:17;100059.06;;;26.18;61.16
58757;BME280;44527;47.460;19.016;2022-08-23T15:24:20;100051.84;;;26.11;59.44
58757;BME280;44527;47.460;19.016;2022-08-23T15:27:23;100054.69;;;26.17;63.24
58757;BME280;44527;47.460;19.016;2022-08-23T15:30:25;100057.19;;;26.18;62.14
58757;BME280;44527;47.460;19.016;2022-08-23T15:33:31;100055.53;;;26.10;61.17
58757;BME280;44527;47.460;19.016;2022-08-23T15:36:39;100050.56;;;26.14;60.96
58757;BME280;44527;47.460;19.016;2022-08-23T15:39:42;100057.19;;;26.05;61.66
58757;BME280;44527;47.460;19.016;2022-08-23T15:42:44;100066.09;;;25.99;61.58
58757;BME280;44527;47.460;19.016;2022-08-23T15:45:47;100064.88;;;25.88;61.19
58757;BME280;44527;47.460;19.016;2022-08-23T15:51:58;100065.06;;;25.66;62.37
58757;BME280;44527;47.460;19.016;2022-08-23T15:55:00;100066.09;;;25.59;63.16
58757;BME280;44527;47.460;19.016;2022-08-23T15:58:03;100074.37;;;25.51;62.40
58757;BME280;44527;47.460;19.016;2022-08-23T16:01:05;100071.03;;;25.29;63.81
58757;BME280;44527;47.460;19.016;2022-08-23T16:04:08;100071.81;;;25.16;63.71
58757;BME280;44527;47.460;19.016;2022-08-23T16:07:13;100066.97;;;24.91;63.83
58757;BME280;44527;47.460;19.016;2022-08-23T16:10:16;100077.50;;;24.86;65.56
58757;BME280;44527;47.460;19.016;2022-08-23T16:13:18;100069.59;;;24.71;65.54
58757;BME280;44527;47.460;19.016;2022-08-23T16:19:26;100072.84;;;24.67;66.66
58757;BME280;44527;47.460;19.016;2022-08-23T16:22:28;100074.06;;;24.58;66.12
58757;BME280;44527;47.460;19.016;2022-08-23T16:25:32;100085.03;;;24.63;66.40
58757;BME280;44527;47.460;19.016;2022-08-23T16:28:36;100080.50;;;24.70;66.05
58757;BME280;44527;47.460;19.016;2022-08-23T16:31:39;100083.38;;;24.62;66.55
58757;BME280;44527;47.460;19.016;2022-08-23T16:34:44;100085.06;;;24.69;66.83
58757;BME280;44527;47.460;19.016;2022-08-23T16:37:49;100080.09;;;24.66;66.59
58757;BME280;44527;47.460;19.016;2022-08-23T16:40:52;100072.03;;;24.66;66.08
58757;BME280;44527;47.460;19.016;2022-08-23T16:43:54;100081.91;;;24.59;67.11
58757;BME280;44527;47.460;19.016;2022-08-23T16:46:57;100072.03;;;24.66;66.95
58757;BME280;44527;47.460;19.016;2022-08-23T16:49:59;100070.91;;;24.47;67.05
58757;BME280;44527;47.460;19.016;2022-08-23T16:53:02;100064.41;;;24.28;68.52
58757;BME280;44527;47.460;19.016;2022-08-23T16:56:08;100068.50;;;24.24;68.16
58757;BME280;44527;47.460;19.016;2022-08-23T16:59:12;100074.44;;;24.20;68.33
58757;BME280;44527;47.460;19.016;2022-08-23T17:02:35;100076.78;;;24.01;68.63
58757;BME280;44527;47.460;19.016;2022-08-23T17:05:38;100079.34;;;23.81;70.52
58757;BME280;44527;47.460;19.016;2022-08-23T17:08:40;100083.22;;;23.79;69.78
58757;BME280;44527;47.460;19.016;2022-08-23T17:11:43;100077.19;;;23.70;70.18
58757;BME280;44527;47.460;19.016;2022-08-23T17:14:46;100081.81;;;23.61;70.60
58757;BME280;44527;47.460;19.016;2022-08-23T17:17:50;100085.13;;;23.42;72.05
58757;BME280;44527;47.460;19.016;2022-08-23T17:20:53;100089.97;;;23.32;72.91
58757;BME280;44527;47.460;19.016;2022-08-23T17:23:56;100102.63;;;23.23;73.83
58757;BME280;44527;47.460;19.016;2022-08-23T17:26:59;100103.78;;;23.14;74.46
58757;BME280;44527;47.460;19.016;2022-08-23T17:30:04;100116.84;;;23.02;75.28